sensor_id;sensor_type;location;lat;lon;timestamp;P1;durP1;ratioP1;P2;durP2;ratioP2
65033;SDS011;51601;51.356;12.458;2022-09-29T00:00:59;12.15;;;5.43;;
65033;SDS011;51601;51.356;12.458;2022-09-29T00:05:15;11.55;;;5.70;;
65033;SDS011;51601;51.356;12.458;2022-09-29T00:09:29;12.57;;;5.30;;
65033;SDS011;51601;51.356;12.458;2022-09-29T00:13:43;11.85;;;5.70;;
65033;SDS011;51601;51.356;12.458;2022-09-29T00:17:58;13.05;;;5.80;;
65033;SDS011;51601;51.356;12.458;2022-09-29T00:22:29;12.02;;;5.93;;
65033;SDS011;51601;51.356;12.458;2022-09-29T00:26:42;11.70;;;5.30;;
65033;SDS011;51601;51.356;12.458;2022-09-29T00:30:57;12.25;;;5.50;;
65033;SDS011;51601;51.356;12.458;2022-09-29T00:35:12;13.82;;;5.78;;
65033;SDS011;51601;51.356;12.458;2022-09-29T00:39:30;11.70;;;5.40;;
65033;SDS011;51601;51.356;12.458;2022-09-29T00:43:48;11.75;;;5.40;;
65033;SDS011;51601;51.356;12.458;2022-09-29T00:48:05;13.73;;;5.70;;
65033;SDS011;51601;51.356;12.458;2022-09-29T00:52:24;13.70;;;6.70;;
65033;SDS011;51601;51.356;12.458;2022-09-29T00:56:44;14.57;;;6.05;;
65033;SDS011;51601;51.356;12.458;2022-09-29T01:00:59;14.43;;;6.32;;
65033;SDS011;51601;51.356;12.458;2022-09-29T01:05:13;14.20;;;6.10;;
65033;SDS011;51601;51.356;12.458;2022-09-29T01:09:32;16.97;;;6.83;;
65033;SDS011;51601;51.356;12.458;2022-09-29T01:13:50;17.08;;;6.82;;
65033;SDS011;51601;51.356;12.458;2022-09-29T01:18:04;15.15;;;6.20;;
65033;SDS011;51601;51.356;12.458;2022-09-29T01:22:22;16.90;;;6.50;;
65033;SDS011;51601;51.356;12.458;2022-09-29T01:31:40;17.77;;;7.03;;
65033;SDS011;51601;51.356;12.458;2022-09-29T01:36:06;16.30;;;6.90;;
65033;SDS011;51601;51.356;12.458;2022-09-29T01:40:28;16.30;;;6.25;;
65033;SDS011;51601;51.356;12.458;2022-09-29T01:44:48;19.35;;;6.93;;
65033;SDS011;51601;51.356;12.458;2022-09-29T01:49:07;19.17;;;6.90;;
65033;SDS011;51601;51.356;12.458;2022-09-29T01:53:23;17.33;;;7.33;;
65033;SDS011;51601;51.356;12.458;2022-09-29T01:57:42;17.00;;;7.20;;
65033;SDS011;51601;51.356;12.458;2022-09-29T02:02:00;17.40;;;7.03;;
65033;SDS011;51601;51.356;12.458;2022-09-29T02:06:22;18.63;;;6.70;;
65033;SDS011;51601;51.356;12.458;2022-09-29T02:10:45;18.50;;;7.50;;
65033;SDS011;51601;51.356;12.458;2022-09-29T02:15:04;19.23;;;8.10;;
65033;SDS011;51601;51.356;12.458;2022-09-29T02:19:21;18.03;;;7.53;;
65033;SDS011;51601;51.356;12.458;2022-09-29T02:23:41;16.85;;;6.60;;
65033;SDS011;51601;51.356;12.458;2022-09-29T02:27:55;14.60;;;6.63;;
65033;SDS011;51601;51.356;12.458;2022-09-29T02:32:10;17.10;;;6.35;;
65033;SDS011;51601;51.356;12.458;2022-09-29T02:36:28;17.37;;;6.93;;
65033;SDS011;51601;51.356;12.458;2022-09-29T02:40:58;17.95;;;7.20;;
65033;SDS011;51601;51.356;12.458;2022-09-29T02:45:21;19.60;;;6.50;;
65033;SDS011;51601;51.356;12.458;2022-09-29T02:49:48;17.77;;;6.67;;
65033;SDS011;51601;51.356;12.458;2022-09-29T02:54:22;21.60;;;7.55;;
65033;SDS011;51601;51.356;12.458;2022-09-29T02:58:50;20.70;;;6.93;;
65033;SDS011;51601;51.356;12.458;2022-09-29T03:03:09;24.07;;;7.53;;
65033;SDS011;51601;51.356;12.458;2022-09-29T03:07:23;20.15;;;6.72;;
65033;SDS011;51601;51.356;12.458;2022-09-29T03:11:37;17.73;;;7.20;;
65033;SDS011;51601;51.356;12.458;2022-09-29T03:15:53;21.95;;;7.10;;
65033;SDS011;51601;51.356;12.458;2022-09-29T03:20:10;22.10;;;7.40;;
65033;SDS011;51601;51.356;12.458;2022-09-29T03:24:26;19.58;;;7.22;;
65033;SDS011;51601;51.356;12.458;2022-09-29T03:28:44;20.90;;;7.75;;
65033;SDS011;51601;51.356;12.458;2022-09-29T03:33:00;22.10;;;8.23;;
65033;SDS011;51601;51.356;12.458;2022-09-29T03:37:15;21.92;;;7.93;;
65033;SDS011;51601;51.356;12.458;2022-09-29T03:41:29;21.08;;;8.02;;
65033;SDS011;51601;51.356;12.458;2022-09-29T03:45:46;22.37;;;8.37;;
65033;SDS011;51601;51.356;12.458;2022-09-29T03:50:05;24.02;;;8.85;;
65033;SDS011;51601;51.356;12.458;2022-09-29T03:54:19;22.90;;;8.02;;
65033;SDS011;51601;51.356;12.458;2022-09-29T03:58:35;27.83;;;9.13;;
65033;SDS011;51601;51.356;12.458;2022-09-29T04:02:49;24.90;;;8.80;;
65033;SDS011;51601;51.356;12.458;2022-09-29T04:07:04;24.80;;;9.00;;
65033;SDS011;51601;51.356;12.458;2022-09-29T04:11:18;22.20;;;8.30;;
65033;SDS011;51601;51.356;12.458;2022-09-29T04:15:32;21.63;;;8.67;;
65033;SDS011;51601;51.356;12.458;2022-09-29T04:19:46;23.08;;;8.07;;
65033;SDS011;51601;51.356;12.458;2022-09-29T04:24:01;24.15;;;8.43;;
65033;SDS011;51601;51.356;12.458;2022-09-29T04:28:15;22.03;;;8.53;;
65033;SDS011;51601;51.356;12.458;2022-09-29T04:32:29;22.20;;;8.43;;
65033;SDS011;51601;51.356;12.458;2022-09-29T04:36:43;21.20;;;7.93;;
65033;SDS011;51601;51.356;12.458;2022-09-29T04:40:58;18.13;;;7.40;;
65033;SDS011;51601;51.356;12.458;2022-09-29T04:45:12;24.00;;;7.60;;
65033;SDS011;51601;51.356;12.458;2022-09-29T04:49:26;20.42;;;7.43;;
65033;SDS011;51601;51.356;12.458;2022-09-29T04:53:40;22.25;;;8.57;;
65033;SDS011;51601;51.356;12.458;2022-09-29T04:57:59;21.83;;;8.83;;
65033;SDS011;51601;51.356;12.458;2022-09-29T05:02:13;22.38;;;8.18;;
65033;SDS011;51601;51.356;12.458;2022-09-29T05:06:27;22.70;;;8.27;;
65033;SDS011;51601;51.356;12.458;2022-09-29T05:10:41;25.97;;;8.80;;
65033;SDS011;51601;51.356;12.458;2022-09-29T05:15:00;20.77;;;8.15;;
65033;SDS011;51601;51.356;12.458;2022-09-29T05:19:15;23.40;;;8.98;;
65033;SDS011;51601;51.356;12.458;2022-09-29T05:23:29;22.50;;;9.30;;
65033;SDS011;51601;51.356;12.458;2022-09-29T05:27:43;22.00;;;8.83;;
65033;SDS011;51601;51.356;12.458;2022-09-29T05:31:59;23.92;;;10.45;;
65033;SDS011;51601;51.356;12.458;2022-09-29T05:36:13;27.80;;;9.38;;
65033;SDS011;51601;51.356;12.458;2022-09-29T05:40:27;25.83;;;10.00;;
65033;SDS011;51601;51.356;12.458;2022-09-29T05:44:41;27.33;;;9.48;;
65033;SDS011;51601;51.356;12.458;2022-09-29T05:48:56;26.67;;;10.52;;
65033;SDS011;51601;51.356;12.458;2022-09-29T05:53:10;26.13;;;10.33;;
65033;SDS011;51601;51.356;12.458;2022-09-29T05:57:24;27.88;;;9.38;;
65033;SDS011;51601;51.356;12.458;2022-09-29T06:01:38;23.13;;;9.65;;
65033;SDS011;51601;51.356;12.458;2022-09-29T06:05:54;26.48;;;10.00;;
65033;SDS011;51601;51.356;12.458;2022-09-29T06:10:08;23.00;;;9.47;;
65033;SDS011;51601;51.356;12.458;2022-09-29T06:14:22;23.70;;;9.40;;
65033;SDS011;51601;51.356;12.458;2022-09-29T06:18:36;20.27;;;8.80;;
65033;SDS011;51601;51.356;12.458;2022-09-29T06:22:53;20.97;;;8.67;;
65033;SDS011;51601;51.356;12.458;2022-09-29T06:27:07;22.38;;;9.30;;
65033;SDS011;51601;51.356;12.458;2022-09-29T06:31:23;24.80;;;10.98;;
65033;SDS011;51601;51.356;12.458;2022-09-29T06:35:38;20.70;;;9.87;;
65033;SDS011;51601;51.356;12.458;2022-09-29T06:40:10;13.98;;;7.00;;
65033;SDS011;51601;51.356;12.458;2022-09-29T06:44:25;12.77;;;6.53;;
65033;SDS011;51601;51.356;12.458;2022-09-29T06:48:41;13.60;;;5.85;;
65033;SDS011;51601;51.356;12.458;2022-09-29T06:52:55;11.17;;;5.67;;
65033;SDS011;51601;51.356;12.458;2022-09-29T06:57:16;11.73;;;5.85;;
65033;SDS011;51601;51.356;12.458;2022-09-29T07:01:31;12.38;;;6.15;;
65033;SDS011;51601;51.356;12.458;2022-09-29T07:05:45;11.20;;;6.40;;
65033;SDS011;51601;51.356;12.458;2022-09-29T07:10:19;10.95;;;6.20;;
65033;SDS011;51601;51.356;12.458;2022-09-29T07:14:34;11.63;;;5.63;;
65033;SDS011;51601;51.356;12.458;2022-09-29T07:18:48;10.00;;;6.10;;
65033;SDS011;51601;51.356;12.458;2022-09-29T07:23:02;12.07;;;6.80;;
65033;SDS011;51601;51.356;12.458;2022-09-29T07:27:17;11.70;;;6.00;;
65033;SDS011;51601;51.356;12.458;2022-09-29T07:31:36;11.90;;;5.95;;
65033;SDS011;51601;51.356;12.458;2022-09-29T07:36:02;10.10;;;5.83;;
65033;SDS011;51601;51.356;12.458;2022-09-29T07:40:16;10.40;;;6.10;;
65033;SDS011;51601;51.356;12.458;2022-09-29T07:44:31;11.07;;;5.82;;
65033;SDS011;51601;51.356;12.458;2022-09-29T07:48:46;9.40;;;5.83;;
65033;SDS011;51601;51.356;12.458;2022-09-29T07:53:00;10.30;;;6.25;;
65033;SDS011;51601;51.356;12.458;2022-09-29T07:57:14;11.13;;;6.43;;
65033;SDS011;51601;51.356;12.458;2022-09-29T08:01:28;9.90;;;5.97;;
65033;SDS011;51601;51.356;12.458;2022-09-29T08:05:44;10.18;;;6.32;;
65033;SDS011;51601;51.356;12.458;2022-09-29T08:09:58;9.50;;;6.38;;
65033;SDS011;51601;51.356;12.458;2022-09-29T08:14:27;10.38;;;6.07;;
65033;SDS011;51601;51.356;12.458;2022-09-29T08:18:41;10.37;;;6.00;;
65033;SDS011;51601;51.356;12.458;2022-09-29T08:22:58;9.10;;;6.05;;
65033;SDS011;51601;51.356;12.458;2022-09-29T08:27:12;10.90;;;6.32;;
65033;SDS011;51601;51.356;12.458;2022-09-29T08:31:30;9.23;;;5.80;;
65033;SDS011;51601;51.356;12.458;2022-09-29T08:35:44;11.40;;;5.80;;
65033;SDS011;51601;51.356;12.458;2022-09-29T08:40:00;8.57;;;5.30;;
65033;SDS011;51601;51.356;12.458;2022-09-29T08:44:15;9.33;;;5.97;;
65033;SDS011;51601;51.356;12.458;2022-09-29T08:48:47;9.75;;;5.97;;
65033;SDS011;51601;51.356;12.458;2022-09-29T08:53:11;8.00;;;5.70;;
65033;SDS011;51601;51.356;12.458;2022-09-29T08:57:39;9.88;;;5.03;;
65033;SDS011;51601;51.356;12.458;2022-09-29T09:01:57;9.67;;;5.20;;
65033;SDS011;51601;51.356;12.458;2022-09-29T09:06:18;8.60;;;4.88;;
65033;SDS011;51601;51.356;12.458;2022-09-29T09:10:40;9.88;;;5.13;;
65033;SDS011;51601;51.356;12.458;2022-09-29T09:15:04;9.30;;;5.23;;
65033;SDS011;51601;51.356;12.458;2022-09-29T09:24:08;9.05;;;5.55;;
65033;SDS011;51601;51.356;12.458;2022-09-29T09:28:34;8.90;;;5.40;;
65033;SDS011;51601;51.356;12.458;2022-09-29T09:32:51;8.25;;;5.10;;
65033;SDS011;51601;51.356;12.458;2022-09-29T09:37:33;8.10;;;4.88;;
65033;SDS011;51601;51.356;12.458;2022-09-29T09:41:52;7.85;;;4.70;;
65033;SDS011;51601;51.356;12.458;2022-09-29T09:46:11;7.47;;;3.87;;
65033;SDS011;51601;51.356;12.458;2022-09-29T09:50:37;7.25;;;4.10;;
65033;SDS011;51601;51.356;12.458;2022-09-29T09:54:55;7.95;;;3.70;;
65033;SDS011;51601;51.356;12.458;2022-09-29T09:59:14;6.77;;;3.80;;
65033;SDS011;51601;51.356;12.458;2022-09-29T10:03:38;6.78;;;3.65;;
65033;SDS011;51601;51.356;12.458;2022-09-29T10:07:54;7.68;;;3.63;;
65033;SDS011;51601;51.356;12.458;2022-09-29T10:12:08;7.07;;;3.33;;
65033;SDS011;51601;51.356;12.458;2022-09-29T10:16:27;7.75;;;3.83;;
65033;SDS011;51601;51.356;12.458;2022-09-29T10:20:47;7.40;;;3.67;;
65033;SDS011;51601;51.356;12.458;2022-09-29T10:25:06;6.95;;;3.60;;
65033;SDS011;51601;51.356;12.458;2022-09-29T10:29:28;6.23;;;2.40;;
65033;SDS011;51601;51.356;12.458;2022-09-29T10:33:48;5.95;;;2.40;;
65033;SDS011;51601;51.356;12.458;2022-09-29T10:38:04;7.55;;;3.63;;
65033;SDS011;51601;51.356;12.458;2022-09-29T10:42:23;8.23;;;4.03;;
65033;SDS011;51601;51.356;12.458;2022-09-29T10:46:46;7.75;;;3.88;;
65033;SDS011;51601;51.356;12.458;2022-09-29T10:51:03;7.82;;;3.85;;
65033;SDS011;51601;51.356;12.458;2022-09-29T10:55:18;6.73;;;3.70;;
65033;SDS011;51601;51.356;12.458;2022-09-29T10:59:36;8.48;;;3.70;;
65033;SDS011;51601;51.356;12.458;2022-09-29T11:04:00;8.48;;;4.57;;
65033;SDS011;51601;51.356;12.458;2022-09-29T11:08:16;6.95;;;4.22;;
65033;SDS011;51601;51.356;12.458;2022-09-29T11:12:36;8.83;;;4.20;;
65033;SDS011;51601;51.356;12.458;2022-09-29T11:16:53;9.38;;;5.00;;
65033;SDS011;51601;51.356;12.458;2022-09-29T11:21:15;8.55;;;3.95;;
65033;SDS011;51601;51.356;12.458;2022-09-29T11:26:00;7.70;;;4.50;;
65033;SDS011;51601;51.356;12.458;2022-09-29T11:30:21;7.60;;;4.50;;
65033;SDS011;51601;51.356;12.458;2022-09-29T11:34:54;8.77;;;4.32;;
65033;SDS011;51601;51.356;12.458;2022-09-29T11:39:24;9.30;;;4.83;;
65033;SDS011;51601;51.356;12.458;2022-09-29T11:43:49;8.25;;;4.57;;
65033;SDS011;51601;51.356;12.458;2022-09-29T11:53:00;8.00;;;4.38;;
65033;SDS011;51601;51.356;12.458;2022-09-29T11:57:27;7.83;;;4.50;;
65033;SDS011;51601;51.356;12.458;2022-09-29T12:01:51;7.40;;;4.10;;
65033;SDS011;51601;51.356;12.458;2022-09-29T12:06:26;7.15;;;4.28;;
65033;SDS011;51601;51.356;12.458;2022-09-29T12:11:02;7.80;;;5.00;;
65033;SDS011;51601;51.356;12.458;2022-09-29T12:15:42;8.70;;;5.22;;
65033;SDS011;51601;51.356;12.458;2022-09-29T12:20:04;9.20;;;5.60;;
65033;SDS011;51601;51.356;12.458;2022-09-29T12:24:31;8.03;;;5.13;;
65033;SDS011;51601;51.356;12.458;2022-09-29T12:28:50;10.23;;;5.80;;
65033;SDS011;51601;51.356;12.458;2022-09-29T12:33:10;9.13;;;5.68;;
65033;SDS011;51601;51.356;12.458;2022-09-29T12:37:30;9.10;;;5.15;;
65033;SDS011;51601;51.356;12.458;2022-09-29T12:41:50;9.07;;;4.60;;
65033;SDS011;51601;51.356;12.458;2022-09-29T12:46:10;8.18;;;4.70;;
65033;SDS011;51601;51.356;12.458;2022-09-29T12:50:32;8.27;;;4.43;;
65033;SDS011;51601;51.356;12.458;2022-09-29T12:54:52;8.70;;;4.20;;
65033;SDS011;51601;51.356;12.458;2022-09-29T12:59:12;8.23;;;4.75;;
65033;SDS011;51601;51.356;12.458;2022-09-29T13:03:44;7.88;;;4.32;;
65033;SDS011;51601;51.356;12.458;2022-09-29T13:08:32;7.60;;;4.60;;
65033;SDS011;51601;51.356;12.458;2022-09-29T13:13:23;7.55;;;4.50;;
65033;SDS011;51601;51.356;12.458;2022-09-29T13:18:05;11.63;;;7.32;;
65033;SDS011;51601;51.356;12.458;2022-09-29T13:22:48;7.32;;;4.50;;
65033;SDS011;51601;51.356;12.458;2022-09-29T13:31:46;6.72;;;3.58;;
65033;SDS011;51601;51.356;12.458;2022-09-29T13:36:04;7.70;;;3.90;;
65033;SDS011;51601;51.356;12.458;2022-09-29T13:40:22;7.70;;;4.30;;
65033;SDS011;51601;51.356;12.458;2022-09-29T13:44:38;7.80;;;4.72;;
65033;SDS011;51601;51.356;12.458;2022-09-29T13:48:54;7.25;;;4.43;;
65033;SDS011;51601;51.356;12.458;2022-09-29T13:53:25;7.40;;;4.50;;
65033;SDS011;51601;51.356;12.458;2022-09-29T13:57:45;8.07;;;4.55;;
65033;SDS011;51601;51.356;12.458;2022-09-29T14:02:16;9.73;;;4.72;;
65033;SDS011;51601;51.356;12.458;2022-09-29T14:06:32;7.88;;;4.30;;
65033;SDS011;51601;51.356;12.458;2022-09-29T14:11:03;8.13;;;4.40;;
65033;SDS011;51601;51.356;12.458;2022-09-29T14:15:33;8.15;;;4.60;;
65033;SDS011;51601;51.356;12.458;2022-09-29T14:19:51;8.30;;;4.38;;
65033;SDS011;51601;51.356;12.458;2022-09-29T14:28:58;8.38;;;3.90;;
65033;SDS011;51601;51.356;12.458;2022-09-29T14:33:16;7.90;;;4.50;;
65033;SDS011;51601;51.356;12.458;2022-09-29T14:37:35;9.57;;;4.30;;
65033;SDS011;51601;51.356;12.458;2022-09-29T14:41:49;8.05;;;4.80;;
65033;SDS011;51601;51.356;12.458;2022-09-29T14:51:08;8.38;;;4.90;;
65033;SDS011;51601;51.356;12.458;2022-09-29T14:55:48;7.93;;;4.90;;
65033;SDS011;51601;51.356;12.458;2022-09-29T15:00:11;7.78;;;4.57;;
65033;SDS011;51601;51.356;12.458;2022-09-29T15:04:30;9.18;;;5.15;;
65033;SDS011;51601;51.356;12.458;2022-09-29T15:08:53;9.10;;;6.07;;
65033;SDS011;51601;51.356;12.458;2022-09-29T15:13:14;9.95;;;6.00;;
65033;SDS011;51601;51.356;12.458;2022-09-29T15:17:35;8.65;;;5.30;;
65033;SDS011;51601;51.356;12.458;2022-09-29T15:21:59;8.70;;;4.80;;
65033;SDS011;51601;51.356;12.458;2022-09-29T15:26:21;8.50;;;5.10;;
65033;SDS011;51601;51.356;12.458;2022-09-29T15:30:38;10.05;;;5.28;;
65033;SDS011;51601;51.356;12.458;2022-09-29T15:34:58;10.20;;;5.75;;
65033;SDS011;51601;51.356;12.458;2022-09-29T15:39:29;8.83;;;4.87;;
65033;SDS011;51601;51.356;12.458;2022-09-29T15:43:59;9.73;;;4.20;;
65033;SDS011;51601;51.356;12.458;2022-09-29T15:48:14;6.68;;;3.63;;
65033;SDS011;51601;51.356;12.458;2022-09-29T15:52:28;5.90;;;2.73;;
65033;SDS011;51601;51.356;12.458;2022-09-29T15:56:43;7.28;;;3.55;;
65033;SDS011;51601;51.356;12.458;2022-09-29T16:01:18;7.25;;;3.28;;
65033;SDS011;51601;51.356;12.458;2022-09-29T16:05:34;7.70;;;3.70;;
65033;SDS011;51601;51.356;12.458;2022-09-29T16:09:57;8.27;;;3.37;;
65033;SDS011;51601;51.356;12.458;2022-09-29T16:14:16;9.32;;;3.65;;
65033;SDS011;51601;51.356;12.458;2022-09-29T16:18:38;7.53;;;3.80;;
65033;SDS011;51601;51.356;12.458;2022-09-29T16:22:55;7.40;;;3.53;;
65033;SDS011;51601;51.356;12.458;2022-09-29T16:36:59;6.90;;;3.40;;
65033;SDS011;51601;51.356;12.458;2022-09-29T16:41:17;7.93;;;3.50;;
65033;SDS011;51601;51.356;12.458;2022-09-29T16:45:38;9.00;;;4.70;;
65033;SDS011;51601;51.356;12.458;2022-09-29T16:49:53;8.50;;;5.00;;
65033;SDS011;51601;51.356;12.458;2022-09-29T16:54:10;9.20;;;4.90;;
65033;SDS011;51601;51.356;12.458;2022-09-29T16:58:29;9.15;;;5.00;;
65033;SDS011;51601;51.356;12.458;2022-09-29T17:02:43;9.00;;;5.13;;
65033;SDS011;51601;51.356;12.458;2022-09-29T17:06:57;10.10;;;4.83;;
65033;SDS011;51601;51.356;12.458;2022-09-29T17:11:13;9.45;;;5.25;;
65033;SDS011;51601;51.356;12.458;2022-09-29T17:15:27;8.00;;;4.57;;
65033;SDS011;51601;51.356;12.458;2022-09-29T17:19:41;9.03;;;4.63;;
65033;SDS011;51601;51.356;12.458;2022-09-29T17:23:55;9.30;;;4.20;;
65033;SDS011;51601;51.356;12.458;2022-09-29T17:28:13;7.85;;;4.30;;
65033;SDS011;51601;51.356;12.458;2022-09-29T17:32:28;7.03;;;3.97;;
65033;SDS011;51601;51.356;12.458;2022-09-29T17:36:42;7.18;;;3.70;;
65033;SDS011;51601;51.356;12.458;2022-09-29T17:40:58;7.60;;;4.20;;
65033;SDS011;51601;51.356;12.458;2022-09-29T17:45:16;7.40;;;3.85;;
65033;SDS011;51601;51.356;12.458;2022-09-29T17:49:32;7.57;;;4.13;;
65033;SDS011;51601;51.356;12.458;2022-09-29T17:53:50;6.47;;;3.58;;
65033;SDS011;51601;51.356;12.458;2022-09-29T17:58:04;7.25;;;4.13;;
65033;SDS011;51601;51.356;12.458;2022-09-29T18:02:19;7.43;;;4.07;;
65033;SDS011;51601;51.356;12.458;2022-09-29T18:06:35;7.53;;;4.10;;
65033;SDS011;51601;51.356;12.458;2022-09-29T18:10:50;7.03;;;4.00;;
65033;SDS011;51601;51.356;12.458;2022-09-29T18:15:05;7.10;;;4.03;;
65033;SDS011;51601;51.356;12.458;2022-09-29T18:19:22;8.15;;;4.13;;
65033;SDS011;51601;51.356;12.458;2022-09-29T18:23:36;7.35;;;4.03;;
65033;SDS011;51601;51.356;12.458;2022-09-29T18:27:51;8.02;;;4.40;;
65033;SDS011;51601;51.356;12.458;2022-09-29T18:32:07;7.53;;;4.13;;
65033;SDS011;51601;51.356;12.458;2022-09-29T18:36:26;6.88;;;3.95;;
65033;SDS011;51601;51.356;12.458;2022-09-29T18:40:40;7.28;;;4.45;;
65033;SDS011;51601;51.356;12.458;2022-09-29T18:44:54;8.47;;;4.77;;
65033;SDS011;51601;51.356;12.458;2022-09-29T18:49:09;8.38;;;4.60;;
65033;SDS011;51601;51.356;12.458;2022-09-29T18:53:26;9.00;;;5.10;;
65033;SDS011;51601;51.356;12.458;2022-09-29T18:57:40;8.33;;;4.90;;
65033;SDS011;51601;51.356;12.458;2022-09-29T19:01:54;9.80;;;5.38;;
65033;SDS011;51601;51.356;12.458;2022-09-29T19:06:08;9.82;;;5.80;;
65033;SDS011;51601;51.356;12.458;2022-09-29T19:10:28;9.68;;;5.85;;
65033;SDS011;51601;51.356;12.458;2022-09-29T19:14:44;9.37;;;5.13;;
65033;SDS011;51601;51.356;12.458;2022-09-29T19:18:58;9.10;;;5.07;;
65033;SDS011;51601;51.356;12.458;2022-09-29T19:23:15;10.15;;;5.88;;
65033;SDS011;51601;51.356;12.458;2022-09-29T19:27:32;10.07;;;6.20;;
65033;SDS011;51601;51.356;12.458;2022-09-29T19:31:46;10.35;;;6.35;;
65033;SDS011;51601;51.356;12.458;2022-09-29T19:36:01;10.48;;;6.13;;
65033;SDS011;51601;51.356;12.458;2022-09-29T19:40:18;10.53;;;6.33;;
65033;SDS011;51601;51.356;12.458;2022-09-29T19:44:35;10.48;;;6.53;;
65033;SDS011;51601;51.356;12.458;2022-09-29T19:48:50;10.90;;;7.07;;
65033;SDS011;51601;51.356;12.458;2022-09-29T19:53:04;10.68;;;6.10;;
65033;SDS011;51601;51.356;12.458;2022-09-29T19:57:26;11.70;;;5.87;;
65033;SDS011;51601;51.356;12.458;2022-09-29T20:01:42;9.85;;;5.68;;
65033;SDS011;51601;51.356;12.458;2022-09-29T20:05:57;9.98;;;5.53;;
65033;SDS011;51601;51.356;12.458;2022-09-29T20:10:13;14.20;;;8.50;;
65033;SDS011;51601;51.356;12.458;2022-09-29T20:14:28;12.80;;;8.48;;
65033;SDS011;51601;51.356;12.458;2022-09-29T20:18:44;14.18;;;8.27;;
65033;SDS011;51601;51.356;12.458;2022-09-29T20:23:00;14.13;;;8.23;;
65033;SDS011;51601;51.356;12.458;2022-09-29T20:27:14;14.63;;;7.53;;
65033;SDS011;51601;51.356;12.458;2022-09-29T20:31:27;12.85;;;8.13;;
65033;SDS011;51601;51.356;12.458;2022-09-29T20:35:44;12.32;;;7.40;;
65033;SDS011;51601;51.356;12.458;2022-09-29T20:39:57;11.93;;;7.63;;
65033;SDS011;51601;51.356;12.458;2022-09-29T20:44:11;12.85;;;6.60;;
65033;SDS011;51601;51.356;12.458;2022-09-29T20:48:25;11.55;;;6.90;;
65033;SDS011;51601;51.356;12.458;2022-09-29T20:52:42;14.20;;;8.17;;
65033;SDS011;51601;51.356;12.458;2022-09-29T20:56:56;11.38;;;6.90;;
65033;SDS011;51601;51.356;12.458;2022-09-29T21:01:12;15.50;;;8.60;;
65033;SDS011;51601;51.356;12.458;2022-09-29T21:05:27;12.10;;;7.77;;
65033;SDS011;51601;51.356;12.458;2022-09-29T21:09:43;14.13;;;7.88;;
65033;SDS011;51601;51.356;12.458;2022-09-29T21:13:57;12.63;;;7.95;;
65033;SDS011;51601;51.356;12.458;2022-09-29T21:18:11;12.07;;;7.88;;
65033;SDS011;51601;51.356;12.458;2022-09-29T21:22:25;12.77;;;7.63;;
65033;SDS011;51601;51.356;12.458;2022-09-29T21:26:40;15.85;;;8.25;;
65033;SDS011;51601;51.356;12.458;2022-09-29T21:31:01;13.68;;;8.38;;
65033;SDS011;51601;51.356;12.458;2022-09-29T21:35:16;14.00;;;8.53;;
65033;SDS011;51601;51.356;12.458;2022-09-29T21:39:30;16.58;;;9.18;;
65033;SDS011;51601;51.356;12.458;2022-09-29T21:43:45;17.02;;;10.02;;
65033;SDS011;51601;51.356;12.458;2022-09-29T21:48:00;17.30;;;10.80;;
65033;SDS011;51601;51.356;12.458;2022-09-29T21:52:20;16.48;;;10.30;;
65033;SDS011;51601;51.356;12.458;2022-09-29T21:56:34;17.40;;;10.90;;
65033;SDS011;51601;51.356;12.458;2022-09-29T22:00:51;17.90;;;9.80;;
65033;SDS011;51601;51.356;12.458;2022-09-29T22:05:05;13.77;;;8.70;;
65033;SDS011;51601;51.356;12.458;2022-09-29T22:09:19;15.00;;;8.60;;
65033;SDS011;51601;51.356;12.458;2022-09-29T22:13:33;14.52;;;8.80;;
65033;SDS011;51601;51.356;12.458;2022-09-29T22:17:50;16.63;;;10.03;;
65033;SDS011;51601;51.356;12.458;2022-09-29T22:22:03;16.52;;;9.70;;
65033;SDS011;51601;51.356;12.458;2022-09-29T22:26:18;16.48;;;9.90;;
65033;SDS011;51601;51.356;12.458;2022-09-29T22:30:32;17.33;;;9.43;;
65033;SDS011;51601;51.356;12.458;2022-09-29T22:34:47;15.88;;;9.85;;
65033;SDS011;51601;51.356;12.458;2022-09-29T22:39:01;17.08;;;9.80;;
65033;SDS011;51601;51.356;12.458;2022-09-29T22:43:16;30.13;;;17.35;;
65033;SDS011;51601;51.356;12.458;2022-09-29T22:47:30;26.23;;;15.50;;
65033;SDS011;51601;51.356;12.458;2022-09-29T22:51:45;21.83;;;12.57;;
65033;SDS011;51601;51.356;12.458;2022-09-29T22:55:59;20.90;;;11.43;;
65033;SDS011;51601;51.356;12.458;2022-09-29T23:00:20;17.17;;;11.20;;
65033;SDS011;51601;51.356;12.458;2022-09-29T23:04:34;21.52;;;12.30;;
65033;SDS011;51601;51.356;12.458;2022-09-29T23:08:49;21.35;;;11.60;;
65033;SDS011;51601;51.356;12.458;2022-09-29T23:13:04;17.87;;;10.93;;
65033;SDS011;51601;51.356;12.458;2022-09-29T23:17:18;19.52;;;11.90;;
65033;SDS011;51601;51.356;12.458;2022-09-29T23:21:32;20.02;;;11.00;;
65033;SDS011;51601;51.356;12.458;2022-09-29T23:25:48;23.00;;;13.18;;
65033;SDS011;51601;51.356;12.458;2022-09-29T23:30:02;23.60;;;14.17;;
65033;SDS011;51601;51.356;12.458;2022-09-29T23:34:16;23.95;;;13.52;;
65033;SDS011;51601;51.356;12.458;2022-09-29T23:38:35;24.30;;;14.25;;
65033;SDS011;51601;51.356;12.458;2022-09-29T23:43:09;24.50;;;14.43;;
65033;SDS011;51601;51.356;12.458;2022-09-29T23:47:23;22.27;;;12.73;;
65033;SDS011;51601;51.356;12.458;2022-09-29T23:51:37;17.30;;;11.50;;
65033;SDS011;51601;51.356;12.458;2022-09-29T23:55:52;22.97;;;12.87;;
